Time;durP1;ratioP1;P1;durP2;ratioP2;P2;SDS_P1;SDS_P2;PMS_P1;PMS_P2;Temp;Humidity;BMP_temperature;BMP_pressure;BME280_temperature;BME280_humidity;BME280_pressure;Samples;Min_cycle;Max_cycle;Signal;HPM_P1;HPM_P2
2023/01/25 00:00:48;;;;;;;12.10;10.30;;;;;19.80;102531.00;;;;2084963;28;20206;-69
2023/01/25 00:01:48;;;;;;;11.13;10.10;;;;;19.80;102528.00;;;;2084637;28;20310;-70
2023/01/25 00:02:49;;;;;;;11.83;10.43;;;;;19.80;102525.00;;;;2084777;28;20300;-69
2023/01/25 00:03:49;;;;;;;10.90;9.90;;;;;19.80;102533.00;;;;2084576;28;20237;-70
2023/01/25 00:04:49;;;;;;;11.00;10.00;;;;;19.80;102534.00;;;;2084692;28;20213;-70
2023/01/25 00:05:58;;;;;;;11.00;10.00;;;;;19.80;102525.00;;;;2084791;28;20197;-70
2023/01/25 00:06:58;;;;;;;10.30;9.30;;;;;19.80;102526.00;;;;2085166;28;20217;-69
2023/01/25 00:07:58;;;;;;;12.53;10.63;;;;;19.70;102520.00;;;;2085254;28;20849;-69
2023/01/25 00:08:59;;;;;;;11.70;9.97;;;;;19.70;102517.00;;;;2084645;28;20597;-69
2023/01/25 00:09:59;;;;;;;11.83;10.73;;;;;19.80;102528.00;;;;2084527;28;20751;-69
2023/01/25 00:11:00;;;;;;;11.50;10.30;;;;;19.80;102520.00;;;;2084978;28;20221;-70
2023/01/25 00:12:00;;;;;;;10.73;9.63;;;;;19.70;102522.00;;;;2083775;28;20215;-69
2023/01/25 00:13:00;;;;;;;11.20;10.20;;;;;19.70;102502.00;;;;2083809;28;20711;-69
2023/01/25 00:14:01;;;;;;;11.20;10.10;;;;;19.70;102512.00;;;;2084350;28;20213;-69
2023/01/25 00:15:01;;;;;;;10.90;10.00;;;;;19.70;102521.00;;;;2084740;28;20213;-69
2023/01/25 00:16:03;;;;;;;11.00;9.83;;;;;19.70;102520.00;;;;2085447;28;20251;-69
2023/01/25 00:17:03;;;;;;;10.80;9.80;;;;;19.70;102520.00;;;;2079894;28;20232;-70
2023/01/25 00:18:04;;;;;;;11.47;10.37;;;;;19.70;102513.00;;;;2079861;28;20244;-69
2023/01/25 00:19:04;;;;;;;9.33;8.53;;;;;19.70;102518.00;;;;2085203;28;20213;-70
2023/01/25 00:20:05;;;;;;;10.87;9.50;;;;;19.70;102503.00;;;;2084658;28;20228;-69
2023/01/25 00:21:16;;;;;;;11.03;10.03;;;;;19.70;102515.00;;;;2084695;28;20958;-70
2023/01/25 00:22:16;;;;;;;9.43;8.63;;;;;19.70;102509.00;;;;2075749;28;20445;-69
2023/01/25 00:23:17;;;;;;;10.53;9.53;;;;;19.60;102511.00;;;;2075721;28;20233;-70
2023/01/25 00:24:17;;;;;;;10.67;9.77;;;;;19.60;102513.00;;;;2083708;28;20279;-69
2023/01/25 00:25:17;;;;;;;10.70;9.80;;;;;19.60;102509.00;;;;2083106;28;20260;-68
2023/01/25 00:26:18;;;;;;;10.17;9.27;;;;;19.60;102502.00;;;;2084069;28;20264;-69
2023/01/25 00:27:18;;;;;;;11.33;8.43;;;;;19.60;102500.00;;;;2076429;28;20215;-70
2023/01/25 00:28:18;;;;;;;10.00;9.20;;;;;19.60;102501.00;;;;2084385;28;20320;-69
2023/01/25 00:29:19;;;;;;;8.90;8.10;;;;;19.60;102496.00;;;;2085383;28;20213;-69
2023/01/25 00:30:19;;;;;;;10.67;9.67;;;;;19.60;102495.00;;;;2084868;28;20232;-69
2023/01/25 00:31:33;;;;;;;10.30;9.50;;;;;19.60;102494.00;;;;2084341;28;20305;-69
2023/01/25 00:32:46;;;;;;;8.98;8.25;;;;;19.60;102497.00;;;;2084205;28;20209;-69
2023/01/25 00:33:50;;;;;;;9.63;8.82;;;;;19.60;102483.00;;;;2084318;28;20669;-70
2023/01/25 00:34:50;;;;;;;10.10;9.20;;;;;19.60;102481.00;;;;2076496;28;20231;-69
2023/01/25 00:35:51;;;;;;;9.27;8.40;;;;;19.60;102497.00;;;;2083541;28;20727;-70
2023/01/25 00:36:57;;;;;;;9.90;9.00;;;;;19.50;102495.00;;;;2075110;28;20216;-70
2023/01/25 00:37:57;;;;;;;8.52;7.82;;;;;19.50;102500.00;;;;2067807;28;20218;-69
2023/01/25 00:38:58;;;;;;;9.60;8.80;;;;;19.50;102501.00;;;;2063372;28;20215;-70
2023/01/25 00:39:58;;;;;;;10.20;9.30;;;;;19.60;102496.00;;;;2075167;28;20275;-69
2023/01/25 00:40:58;;;;;;;8.80;8.10;;;;;19.60;102493.00;;;;2084299;28;20328;-69
2023/01/25 00:41:59;;;;;;;9.50;8.63;;;;;19.50;102494.00;;;;2084280;28;20221;-70
2023/01/25 00:42:59;;;;;;;9.53;8.40;;;;;19.50;102489.00;;;;2084969;28;20220;-68
2023/01/25 00:44:00;;;;;;;7.77;7.17;;;;;19.50;102493.00;;;;2085268;28;20241;-69
2023/01/25 00:45:00;;;;;;;10.23;8.43;;;;;19.50;102487.00;;;;2085171;28;20221;-69
2023/01/25 00:46:00;;;;;;;8.90;8.13;;;;;19.50;102490.00;;;;2085249;28;20584;-69
2023/01/25 00:47:01;;;;;;;9.80;9.03;;;;;19.50;102490.00;;;;2084668;28;20605;-69
2023/01/25 00:48:01;;;;;;;7.93;7.33;;;;;19.50;102486.00;;;;2084005;28;20213;-70
2023/01/25 00:49:01;;;;;;;9.50;8.60;;;;;19.50;102490.00;;;;2084278;28;20220;-69
2023/01/25 00:50:02;;;;;;;9.00;8.27;;;;;19.50;102485.00;;;;2074677;28;20246;-69
2023/01/25 00:51:02;;;;;;;8.83;8.13;;;;;19.50;102491.00;;;;2075731;28;20333;-69
2023/01/25 00:52:03;;;;;;;10.30;9.40;;;;;19.50;102491.00;;;;2084533;28;20272;-69
2023/01/25 00:53:03;;;;;;;8.17;7.47;;;;;19.50;102483.00;;;;2084266;28;20218;-69
2023/01/25 00:54:03;;;;;;;8.13;7.43;;;;;19.50;102488.00;;;;2085020;28;20232;-69
2023/01/25 00:55:04;;;;;;;8.97;8.27;;;;;19.40;102487.00;;;;2085001;28;20224;-69
2023/01/25 00:56:04;;;;;;;9.17;8.47;;;;;19.40;102486.00;;;;2084102;28;20251;-69
2023/01/25 00:57:05;;;;;;;9.10;8.30;;;;;19.40;102484.00;;;;2084390;28;20575;-70
2023/01/25 00:58:06;;;;;;;9.40;8.70;;;;;19.50;102481.00;;;;2083719;28;20231;-69
2023/01/25 00:59:06;;;;;;;9.27;8.20;;;;;19.40;102483.00;;;;2084169;28;20680;-69
2023/01/25 01:00:09;;;;;;;8.60;7.90;;;;;19.40;102483.00;;;;2083757;28;20682;-70
2023/01/25 01:01:10;;;;;;;8.52;7.82;;;;;19.40;102479.00;;;;2073362;28;20249;-70
2023/01/25 01:02:10;;;;;;;8.10;7.43;;;;;19.40;102486.00;;;;2083902;28;20217;-70
2023/01/25 01:03:11;;;;;;;8.97;8.27;;;;;19.40;102476.00;;;;2079114;28;20220;-70
2023/01/25 01:04:11;;;;;;;8.77;8.07;;;;;19.40;102481.00;;;;2082279;28;20213;-69
2023/01/25 01:05:11;;;;;;;8.20;7.50;;;;;19.40;102494.00;;;;2083318;28;20220;-69
2023/01/25 01:06:12;;;;;;;9.00;8.30;;;;;19.40;102456.00;;;;2083766;28;20256;-70
2023/01/25 01:07:13;;;;;;;8.27;7.57;;;;;19.40;102485.00;;;;2084781;28;20217;-69
2023/01/25 01:08:13;;;;;;;8.77;8.07;;;;;19.40;102476.00;;;;2078712;28;20256;-69
2023/01/25 01:09:15;;;;;;;8.00;7.40;;;;;19.30;102484.00;;;;2076231;28;20673;-69
2023/01/25 01:10:15;;;;;;;8.90;8.20;;;;;19.40;102478.00;;;;2084772;28;20224;-69
2023/01/25 01:11:15;;;;;;;8.77;8.07;;;;;19.40;102487.00;;;;2084998;28;20762;-69
2023/01/25 01:12:16;;;;;;;8.53;7.73;;;;;19.30;102468.00;;;;2075688;28;20734;-69
2023/01/25 01:13:16;;;;;;;8.90;8.20;;;;;19.30;102472.00;;;;2084124;28;20707;-71
2023/01/25 01:14:16;;;;;;;8.50;7.80;;;;;19.40;102477.00;;;;2083163;28;20213;-69
2023/01/25 01:15:17;;;;;;;8.37;7.67;;;;;19.30;102481.00;;;;2085681;28;20237;-69
2023/01/25 01:16:17;;;;;;;8.30;7.60;;;;;19.30;102481.00;;;;2084931;28;20217;-70
2023/01/25 01:17:17;;;;;;;8.90;8.20;;;;;19.30;102483.00;;;;2085143;28;20236;-69
2023/01/25 01:18:18;;;;;;;7.80;7.20;;;;;19.30;102479.00;;;;2084540;28;20336;-69
2023/01/25 01:19:18;;;;;;;7.67;7.07;;;;;19.30;102486.00;;;;2084842;28;20217;-69
2023/01/25 01:20:18;;;;;;;8.40;7.70;;;;;19.30;102486.00;;;;2083612;28;20224;-70
2023/01/25 01:21:19;;;;;;;7.50;6.90;;;;;19.30;102486.00;;;;2083388;28;20220;-69
2023/01/25 01:22:19;;;;;;;8.50;7.80;;;;;19.30;102481.00;;;;2075103;28;20236;-69
2023/01/25 01:23:19;;;;;;;8.47;7.77;;;;;19.30;102484.00;;;;2083394;28;20205;-70
2023/01/25 01:24:20;;;;;;;7.87;7.27;;;;;19.30;102482.00;;;;2087465;28;20268;-69
2023/01/25 01:25:20;;;;;;;8.53;7.83;;;;;19.30;102467.00;;;;2083591;28;20219;-69
2023/01/25 01:26:20;;;;;;;8.20;7.60;;;;;19.30;102484.00;;;;2082791;28;20216;-69
2023/01/25 01:27:21;;;;;;;7.93;7.30;;;;;19.30;102485.00;;;;2084097;28;20209;-69
2023/01/25 01:28:21;;;;;;;7.77;7.17;;;;;19.30;102487.00;;;;2081998;28;20258;-69
2023/01/25 01:29:21;;;;;;;8.10;7.40;;;;;19.20;102489.00;;;;2084379;28;20228;-69
2023/01/25 01:30:22;;;;;;;7.87;7.27;;;;;19.30;102491.00;;;;2083927;28;20612;-69
2023/01/25 01:31:22;;;;;;;8.40;7.70;;;;;19.30;102503.00;;;;2075791;28;20214;-69
2023/01/25 01:32:23;;;;;;;8.73;8.00;;;;;19.20;102485.00;;;;2084179;28;20205;-69
2023/01/25 01:33:23;;;;;;;8.13;7.43;;;;;19.20;102480.00;;;;2081842;28;20212;-69
2023/01/25 01:34:23;;;;;;;7.53;6.93;;;;;19.30;102483.00;;;;2082147;28;20249;-69
2023/01/25 01:35:24;;;;;;;8.30;7.60;;;;;19.20;102481.00;;;;2082603;28;20227;-69
2023/01/25 01:36:25;;;;;;;9.07;8.27;;;;;19.20;102484.00;;;;2083007;28;20209;-70
2023/01/25 01:37:26;;;;;;;8.55;7.85;;;;;19.30;102481.00;;;;2082678;28;20241;-69
2023/01/25 01:38:26;;;;;;;8.33;7.67;;;;;19.20;102476.00;;;;2085098;28;20213;-69
2023/01/25 01:39:26;;;;;;;8.87;8.17;;;;;19.20;102482.00;;;;2082845;28;20425;-70
2023/01/25 01:40:27;;;;;;;8.97;8.07;;;;;19.20;102480.00;;;;2075001;28;20617;-71
2023/01/25 01:41:27;;;;;;;10.60;7.70;;;;;19.30;102470.00;;;;2086211;28;20608;-72
2023/01/25 01:42:27;;;;;;;15.33;7.90;;;;;19.30;102473.00;;;;2083222;28;20208;-70
2023/01/25 01:43:29;;;;;;;8.67;7.83;;;;;19.30;102472.00;;;;2081917;28;20578;-70
2023/01/25 01:44:47;;;;;;;9.30;7.40;;;;;19.30;102463.00;;;;2082512;28;20217;-71
2023/01/25 01:45:47;;;;;;;8.40;6.85;;;;;19.30;102475.00;;;;2083021;28;20208;-71
2023/01/25 01:46:53;;;;;;;7.57;6.87;;;;;19.30;102456.00;;;;2083062;28;20703;-71
2023/01/25 01:47:53;;;;;;;7.65;6.95;;;;;19.40;102465.00;;;;2077597;28;20275;-71
2023/01/25 01:49:02;;;;;;;8.20;7.40;;;;;19.30;102472.00;;;;2066599;28;20210;-71
2023/01/25 01:50:05;;;;;;;8.23;7.45;;;;;19.30;102467.00;;;;2066160;28;20256;-71
2023/01/25 01:51:20;;;;;;;8.40;7.70;;;;;19.30;102471.00;;;;2075634;28;20214;-71
2023/01/25 01:52:24;;;;;;;7.25;6.55;;;;;19.30;102466.00;;;;2060035;28;20209;-71
2023/01/25 01:53:24;;;;;;;8.20;7.40;;;;;19.40;102472.00;;;;2059306;28;20219;-71
2023/01/25 01:54:24;;;;;;;8.20;7.03;;;;;19.40;102464.00;;;;2060240;28;20306;-71
2023/01/25 01:55:25;;;;;;;7.63;7.03;;;;;19.40;102465.00;;;;2074376;28;20206;-71
2023/01/25 01:56:29;;;;;;;8.57;7.77;;;;;19.40;102472.00;;;;2075258;28;20206;-71
2023/01/25 01:57:33;;;;;;;8.55;7.53;;;;;19.40;102469.00;;;;2075652;28;20216;-71
2023/01/25 01:58:34;;;;;;;7.78;7.07;;;;;19.40;102468.00;;;;2082989;28;20228;-71
2023/01/25 02:00:00;;;;;;;8.20;7.60;;;;;19.40;102451.00;;;;2074320;28;20217;-71
2023/01/25 02:01:00;;;;;;;8.98;8.20;;;;;19.40;102471.00;;;;2077063;28;20296;-71
2023/01/25 02:02:00;;;;;;;8.07;7.40;;;;;19.40;102466.00;;;;2073654;28;20625;-71
2023/01/25 02:03:01;;;;;;;8.40;7.60;;;;;19.40;102462.00;;;;2082626;28;20656;-71
2023/01/25 02:04:01;;;;;;;8.20;7.50;;;;;19.30;102469.00;;;;2082781;28;20735;-71
2023/01/25 02:05:03;;;;;;;8.40;7.60;;;;;19.40;102459.00;;;;2083009;28;20700;-70
2023/01/25 02:06:09;;;;;;;8.40;7.60;;;;;19.40;102459.00;;;;2075159;28;20249;-71
2023/01/25 02:07:31;;;;;;;7.38;6.78;;;;;19.40;102456.00;;;;2060034;28;20215;-71
2023/01/25 02:08:33;;;;;;;8.40;7.70;;;;;19.40;102463.00;;;;2072742;28;20296;-71
2023/01/25 02:09:34;;;;;;;8.45;7.78;;;;;19.40;102463.00;;;;2083600;28;20217;-71
2023/01/25 02:10:34;;;;;;;7.37;6.83;;;;;19.40;102460.00;;;;2083759;28;20292;-71
2023/01/25 02:11:34;;;;;;;8.17;7.57;;;;;19.40;102465.00;;;;2075602;28;20209;-70
2023/01/25 02:12:35;;;;;;;8.30;7.60;;;;;19.40;102468.00;;;;2083081;28;20275;-71
2023/01/25 02:13:35;;;;;;;7.27;6.70;;;;;19.40;102465.00;;;;2082944;28;20295;-71
2023/01/25 02:14:35;;;;;;;8.10;7.30;;;;;19.40;102450.00;;;;2074539;28;20217;-71
2023/01/25 02:15:46;;;;;;;8.37;7.67;;;;;19.30;102468.00;;;;2074791;28;20226;-71
2023/01/25 02:16:46;;;;;;;8.10;7.50;;;;;19.30;102468.00;;;;2067894;28;20668;-71
2023/01/25 02:17:47;;;;;;;9.13;8.33;;;;;19.30;102467.00;;;;2066695;28;20229;-70
2023/01/25 02:18:47;;;;;;;8.00;7.33;;;;;19.40;102471.00;;;;2074558;28;20221;-71
2023/01/25 02:20:28;;;;;;;8.30;7.63;;;;;19.20;102466.00;;;;2075194;28;20312;-71
2023/01/25 02:21:31;;;;;;;7.30;6.70;;;;;19.30;102474.00;;;;2063589;28;20648;-71
2023/01/25 02:22:44;;;;;;;7.75;7.15;;;;;19.30;102463.00;;;;2065721;28;20219;-71
2023/01/25 02:24:13;;;;;;;9.05;8.35;;;;;19.30;102460.00;;;;2076202;28;20221;-71
2023/01/25 02:25:13;;;;;;;7.88;7.28;;;;;19.30;102446.00;;;;2073680;28;20225;-71
2023/01/25 02:26:13;;;;;;;8.90;8.20;;;;;19.30;102464.00;;;;2074120;28;20280;-71
2023/01/25 02:27:14;;;;;;;8.90;8.20;;;;;19.30;102452.00;;;;2072573;28;20573;-71
2023/01/25 02:28:17;;;;;;;7.80;7.20;;;;;19.30;102459.00;;;;2073857;28;20210;-71
2023/01/25 02:29:19;;;;;;;8.68;7.97;;;;;19.30;102456.00;;;;2066315;28;20218;-71
2023/01/25 02:30:19;;;;;;;8.80;8.10;;;;;19.30;102437.00;;;;2066831;28;20228;-71
2023/01/25 02:31:21;;;;;;;8.80;8.05;;;;;19.30;102452.00;;;;2074665;28;20283;-71
2023/01/25 02:32:21;;;;;;;9.47;8.67;;;;;19.30;102456.00;;;;2083247;28;20263;-71
2023/01/25 02:33:23;;;;;;;8.60;7.90;;;;;19.30;102454.00;;;;2084400;28;20216;-71
2023/01/25 02:34:23;;;;;;;8.70;8.00;;;;;19.30;102458.00;;;;2084126;28;20301;-72
2023/01/25 02:35:40;;;;;;;9.47;8.73;;;;;19.30;102456.00;;;;2084519;28;20714;-72
2023/01/25 02:36:40;;;;;;;8.00;7.40;;;;;19.30;102461.00;;;;2083594;28;20212;-70
2023/01/25 02:37:41;;;;;;;8.60;7.90;;;;;19.30;102459.00;;;;2082825;28;20233;-71
2023/01/25 02:38:45;;;;;;;8.73;8.03;;;;;19.30;102460.00;;;;2082470;28;20305;-71
2023/01/25 02:39:46;;;;;;;8.25;7.60;;;;;19.30;102465.00;;;;2082909;28;20212;-71
2023/01/25 02:40:58;;;;;;;8.87;8.17;;;;;19.30;102470.00;;;;2085936;28;20217;-71
2023/01/25 02:41:58;;;;;;;8.82;8.23;;;;;19.30;102459.00;;;;2077244;28;20289;-71
2023/01/25 02:42:58;;;;;;;8.23;7.63;;;;;19.30;102460.00;;;;2076040;28;20280;-71
2023/01/25 02:44:35;;;;;;;8.00;7.40;;;;;19.30;102449.00;;;;2083613;28;20217;-70
2023/01/25 02:45:36;;;;;;;8.90;8.10;;;;;19.30;102466.00;;;;2046103;28;20245;-71
2023/01/25 02:46:36;;;;;;;8.63;7.93;;;;;19.30;102461.00;;;;2070420;28;20755;-71
2023/01/25 02:47:37;;;;;;;8.00;7.40;;;;;19.20;102468.00;;;;2083280;28;20224;-70
2023/01/25 02:48:37;;;;;;;9.17;8.37;;;;;19.30;102463.00;;;;2084189;28;20452;-70
2023/01/25 02:49:38;;;;;;;8.77;8.07;;;;;19.30;102458.00;;;;2085782;28;20716;-69
2023/01/25 02:50:38;;;;;;;9.13;7.80;;;;;19.30;102459.00;;;;2085511;28;20790;-70
2023/01/25 02:51:41;;;;;;;10.13;7.40;;;;;19.40;102465.00;;;;2084484;28;20215;-69
2023/01/25 02:52:42;;;;;;;8.40;7.70;;;;;19.30;102463.00;;;;2083391;28;20572;-69
2023/01/25 02:53:42;;;;;;;8.30;7.60;;;;;19.30;102459.00;;;;2083763;28;20256;-69
2023/01/25 02:54:42;;;;;;;9.00;8.20;;;;;19.30;102458.00;;;;2083301;28;20213;-70
2023/01/25 02:55:43;;;;;;;8.60;7.80;;;;;19.30;102431.00;;;;2083390;28;20217;-69
2023/01/25 02:56:43;;;;;;;7.90;7.20;;;;;19.30;102459.00;;;;2084625;28;20220;-70
2023/01/25 02:57:43;;;;;;;8.40;7.70;;;;;19.30;102466.00;;;;2084708;28;20217;-69
2023/01/25 02:58:44;;;;;;;9.00;8.20;;;;;19.20;102467.00;;;;2084379;28;20217;-69
2023/01/25 02:59:44;;;;;;;8.40;7.60;;;;;19.20;102467.00;;;;2086229;28;20227;-70
2023/01/25 03:00:44;;;;;;;9.07;8.27;;;;;19.20;102466.00;;;;2085105;28;20209;-69
2023/01/25 03:01:45;;;;;;;8.80;7.90;;;;;19.20;102459.00;;;;2084946;28;20222;-69
2023/01/25 03:02:45;;;;;;;8.13;7.53;;;;;19.20;102464.00;;;;2085444;28;20205;-69
2023/01/25 03:03:45;;;;;;;9.17;8.30;;;;;19.30;102463.00;;;;2082701;28;20213;-68
2023/01/25 03:04:46;;;;;;;9.13;8.33;;;;;19.20;102457.00;;;;2082940;28;20255;-69
2023/01/25 03:05:46;;;;;;;8.20;7.50;;;;;19.20;102459.00;;;;2084370;28;20221;-69
2023/01/25 03:06:46;;;;;;;8.80;8.03;;;;;19.20;102461.00;;;;2083729;28;21347;-69
2023/01/25 03:07:47;;;;;;;8.63;7.93;;;;;19.20;102458.00;;;;2083466;28;20585;-69
2023/01/25 03:08:47;;;;;;;8.07;7.33;;;;;19.20;102463.00;;;;2083875;28;20221;-69
2023/01/25 03:09:48;;;;;;;8.57;7.87;;;;;19.20;102463.00;;;;2082776;28;20248;-69
2023/01/25 03:10:48;;;;;;;8.43;7.73;;;;;19.10;102455.00;;;;2083257;28;20228;-69
2023/01/25 03:11:48;;;;;;;8.90;8.20;;;;;19.20;102456.00;;;;2086104;28;20566;-69
2023/01/25 03:12:49;;;;;;;9.27;8.47;;;;;19.10;102453.00;;;;2084377;28;20220;-69
2023/01/25 03:13:49;;;;;;;7.83;7.13;;;;;19.20;102436.00;;;;2083580;28;20228;-68
2023/01/25 03:14:49;;;;;;;8.73;8.03;;;;;19.10;102461.00;;;;2084191;28;20221;-69
2023/01/25 03:15:50;;;;;;;7.97;7.27;;;;;19.10;102458.00;;;;2086470;28;20224;-69
2023/01/25 03:16:50;;;;;;;8.90;8.20;;;;;19.10;102452.00;;;;2080964;28;20237;-69
2023/01/25 03:17:50;;;;;;;8.70;7.90;;;;;19.10;102449.00;;;;2083984;28;20225;-68
2023/01/25 03:18:54;;;;;;;8.20;7.60;;;;;19.10;102452.00;;;;2084234;28;20220;-68
2023/01/25 03:19:54;;;;;;;8.88;8.18;;;;;19.10;102444.00;;;;2084027;28;20676;-69
2023/01/25 03:20:55;;;;;;;8.53;7.83;;;;;19.20;102441.00;;;;2083907;28;20209;-69
2023/01/25 03:21:55;;;;;;;9.00;8.23;;;;;19.10;102445.00;;;;2083078;28;20229;-69
2023/01/25 03:22:55;;;;;;;9.53;8.50;;;;;19.10;102447.00;;;;2082934;28;20694;-69
2023/01/25 03:23:57;;;;;;;8.50;7.80;;;;;19.10;102451.00;;;;2082948;28;20681;-69
2023/01/25 03:24:57;;;;;;;9.35;8.63;;;;;19.10;102446.00;;;;2082878;28;20217;-68
2023/01/25 03:26:12;;;;;;;8.37;7.67;;;;;19.10;102447.00;;;;2083770;28;20213;-69
2023/01/25 03:27:17;;;;;;;7.97;7.38;;;;;19.10;102439.00;;;;2083996;28;20216;-69
2023/01/25 03:28:17;;;;;;;8.38;7.68;;;;;19.10;102437.00;;;;2085955;28;20877;-69
2023/01/25 03:29:17;;;;;;;8.43;7.73;;;;;19.10;102435.00;;;;2082712;28;20217;-69
2023/01/25 03:30:18;;;;;;;8.53;7.83;;;;;19.10;102436.00;;;;2083149;28;20252;-69
2023/01/25 03:31:18;;;;;;;8.73;7.77;;;;;19.00;102410.00;;;;2083034;28;20222;-69
2023/01/25 03:32:19;;;;;;;8.50;7.80;;;;;19.10;102432.00;;;;2083550;28;20724;-69
2023/01/25 03:33:19;;;;;;;8.60;7.80;;;;;19.10;102428.00;;;;2083329;28;20220;-69
2023/01/25 03:34:19;;;;;;;8.70;8.00;;;;;19.10;102431.00;;;;2084135;28;20216;-69
2023/01/25 03:35:20;;;;;;;8.97;8.27;;;;;19.10;102431.00;;;;2081865;28;20232;-69
2023/01/25 03:36:20;;;;;;;8.53;7.77;;;;;19.10;102424.00;;;;2083322;28;20307;-69
2023/01/25 03:37:20;;;;;;;8.80;8.10;;;;;19.10;102421.00;;;;2083151;28;20224;-69
2023/01/25 03:38:21;;;;;;;8.13;7.53;;;;;19.10;102431.00;;;;2082994;28;20224;-69
2023/01/25 03:39:21;;;;;;;8.43;7.73;;;;;19.10;102424.00;;;;2082943;28;20217;-69
2023/01/25 03:40:22;;;;;;;9.70;8.90;;;;;19.10;102424.00;;;;2082971;28;20685;-69
2023/01/25 03:41:22;;;;;;;8.63;7.93;;;;;19.10;102431.00;;;;2075168;28;20228;-69
2023/01/25 03:42:22;;;;;;;8.33;7.60;;;;;19.10;102429.00;;;;2083146;28;20225;-69
2023/01/25 03:43:23;;;;;;;9.70;8.90;;;;;19.10;102424.00;;;;2083249;28;20223;-69
2023/01/25 03:44:23;;;;;;;8.47;7.77;;;;;19.00;102425.00;;;;2074639;28;20240;-69
2023/01/25 03:45:24;;;;;;;8.80;8.10;;;;;19.00;102419.00;;;;2082494;28;20221;-69
2023/01/25 03:46:24;;;;;;;8.13;7.43;;;;;19.10;102420.00;;;;2083310;28;20259;-69
2023/01/25 03:47:24;;;;;;;9.00;8.30;;;;;19.00;102415.00;;;;2083048;28;20245;-69
2023/01/25 03:48:25;;;;;;;9.20;8.47;;;;;19.10;102424.00;;;;2082913;28;20221;-69
2023/01/25 03:49:26;;;;;;;9.20;8.30;;;;;19.00;102415.00;;;;2083962;28;20222;-68
2023/01/25 03:50:27;;;;;;;8.57;7.88;;;;;19.00;102420.00;;;;2083922;28;20228;-69
2023/01/25 03:51:27;;;;;;;8.60;7.90;;;;;19.00;102393.00;;;;2083967;28;20573;-69
2023/01/25 03:52:30;;;;;;;9.20;8.30;;;;;19.00;102407.00;;;;2084016;28;20209;-69
2023/01/25 03:53:31;;;;;;;8.00;7.40;;;;;19.00;102419.00;;;;2082927;28;20295;-69
2023/01/25 03:54:31;;;;;;;8.23;7.53;;;;;19.00;102408.00;;;;2083012;28;20288;-69
2023/01/25 03:55:33;;;;;;;8.23;7.57;;;;;19.00;102407.00;;;;2083106;28;20228;-70
2023/01/25 03:56:33;;;;;;;9.25;8.55;;;;;19.00;102405.00;;;;2083484;28;20214;-69
2023/01/25 03:57:33;;;;;;;8.90;8.10;;;;;19.00;102404.00;;;;2083826;28;20217;-69
2023/01/25 03:58:35;;;;;;;9.10;8.33;;;;;19.00;102407.00;;;;2083405;28;20667;-70
2023/01/25 03:59:35;;;;;;;8.65;7.95;;;;;19.00;102401.00;;;;2083032;28;20251;-69
2023/01/25 04:00:36;;;;;;;8.43;7.73;;;;;19.00;102391.00;;;;2082919;28;20201;-70
2023/01/25 04:01:36;;;;;;;8.70;8.00;;;;;19.00;102402.00;;;;2082635;28;20223;-69
2023/01/25 04:02:36;;;;;;;9.70;8.90;;;;;19.00;102405.00;;;;2083231;28;20213;-70
2023/01/25 04:03:37;;;;;;;9.30;8.50;;;;;19.00;102398.00;;;;2082964;28;20217;-70
2023/01/25 04:04:37;;;;;;;8.60;7.80;;;;;18.90;102400.00;;;;2082317;28;20214;-70
2023/01/25 04:05:37;;;;;;;8.00;7.30;;;;;19.00;102399.00;;;;2083156;28;20716;-70
2023/01/25 04:06:38;;;;;;;8.70;7.90;;;;;19.00;102396.00;;;;2083903;28;20213;-70
2023/01/25 04:07:38;;;;;;;7.87;7.23;;;;;19.00;102394.00;;;;2085169;28;20267;-69
2023/01/25 04:08:39;;;;;;;9.10;8.30;;;;;19.00;102395.00;;;;2079406;28;20215;-69
2023/01/25 04:09:39;;;;;;;9.03;8.30;;;;;19.00;102401.00;;;;2091847;28;20223;-70
2023/01/25 04:10:39;;;;;;;8.47;7.80;;;;;19.00;102396.00;;;;2083795;28;20217;-69
2023/01/25 04:11:40;;;;;;;8.47;7.77;;;;;18.90;102392.00;;;;2075701;28;20213;-70
2023/01/25 04:12:40;;;;;;;8.40;7.70;;;;;18.90;102394.00;;;;2083760;28;20688;-69
2023/01/25 04:13:40;;;;;;;10.00;9.10;;;;;19.00;102394.00;;;;2085018;28;20210;-69
2023/01/25 04:14:41;;;;;;;9.07;8.27;;;;;18.90;102393.00;;;;2084792;28;20244;-70
2023/01/25 04:15:41;;;;;;;8.03;7.40;;;;;18.90;102396.00;;;;2086690;28;20217;-69
2023/01/25 04:16:41;;;;;;;9.20;8.40;;;;;19.00;102386.00;;;;2084592;28;20283;-69
2023/01/25 04:17:42;;;;;;;9.00;8.20;;;;;18.90;102385.00;;;;2084686;28;20209;-68
2023/01/25 04:18:42;;;;;;;8.40;7.70;;;;;18.90;102381.00;;;;2084482;28;20220;-69
2023/01/25 04:19:42;;;;;;;9.17;8.43;;;;;18.90;102376.00;;;;2084585;28;20254;-69
2023/01/25 04:20:43;;;;;;;8.83;8.03;;;;;18.90;102375.00;;;;2085245;28;20545;-70
2023/01/25 04:21:43;;;;;;;8.50;7.80;;;;;18.90;102377.00;;;;2084746;28;20763;-69
2023/01/25 04:22:43;;;;;;;8.63;7.90;;;;;18.90;102371.00;;;;2084511;28;20213;-69
2023/01/25 04:23:44;;;;;;;9.40;8.70;;;;;18.90;102368.00;;;;2084507;28;20213;-69
2023/01/25 04:24:44;;;;;;;8.70;7.90;;;;;19.00;102369.00;;;;2083499;28;20205;-70
2023/01/25 04:26:02;;;;;;;9.40;8.60;;;;;18.90;102372.00;;;;2083549;28;20283;-69
2023/01/25 04:27:02;;;;;;;8.45;7.75;;;;;19.00;102365.00;;;;2084454;28;20241;-69
2023/01/25 04:28:03;;;;;;;9.17;8.37;;;;;18.90;102365.00;;;;2084315;28;20228;-69
2023/01/25 04:29:03;;;;;;;7.87;7.17;;;;;18.90;102366.00;;;;2085277;28;20221;-69
2023/01/25 04:30:04;;;;;;;8.60;7.80;;;;;18.90;102367.00;;;;2085218;28;20229;-69
2023/01/25 04:31:05;;;;;;;8.70;7.90;;;;;18.90;102358.00;;;;2085055;28;20229;-69
2023/01/25 04:32:05;;;;;;;8.83;8.13;;;;;18.90;102360.00;;;;2084004;28;20492;-70
2023/01/25 04:33:06;;;;;;;8.90;8.20;;;;;18.90;102362.00;;;;2084354;28;20457;-69
2023/01/25 04:34:07;;;;;;;8.65;7.95;;;;;18.90;102368.00;;;;2084496;28;20209;-69
2023/01/25 04:35:07;;;;;;;10.00;9.10;;;;;18.90;102364.00;;;;2084406;28;20221;-70
2023/01/25 04:36:08;;;;;;;8.87;8.07;;;;;18.90;102355.00;;;;2084443;28;20218;-69
2023/01/25 04:37:08;;;;;;;9.07;8.27;;;;;18.90;102332.00;;;;2084814;28;20304;-69
2023/01/25 04:38:09;;;;;;;9.70;8.80;;;;;18.90;102367.00;;;;2085009;28;20217;-69
2023/01/25 04:39:09;;;;;;;8.97;8.27;;;;;18.90;102359.00;;;;2085323;28;20731;-69
2023/01/25 04:40:09;;;;;;;9.00;8.20;;;;;18.90;102360.00;;;;2085169;28;20219;-69
2023/01/25 04:41:10;;;;;;;8.47;7.77;;;;;18.90;102356.00;;;;2084377;28;20217;-69
2023/01/25 04:42:10;;;;;;;8.50;7.73;;;;;18.90;102359.00;;;;2084304;28;20221;-70
2023/01/25 04:43:14;;;;;;;9.07;8.27;;;;;18.70;102357.00;;;;2084434;28;20231;-70
2023/01/25 04:44:15;;;;;;;9.60;8.75;;;;;18.90;102354.00;;;;2084042;28;20209;-70
2023/01/25 04:45:15;;;;;;;9.10;8.30;;;;;18.90;102354.00;;;;2084183;28;20244;-70
2023/01/25 04:46:15;;;;;;;8.57;7.77;;;;;18.90;102355.00;;;;2083661;28;20236;-69
2023/01/25 04:47:15;;;;;;;8.97;8.17;;;;;18.90;102349.00;;;;2083349;28;20247;-69
2023/01/25 04:48:16;;;;;;;9.70;8.80;;;;;18.90;102347.00;;;;2083758;28;20209;-69
2023/01/25 04:49:16;;;;;;;9.10;8.30;;;;;18.90;102350.00;;;;2085016;28;20272;-69
2023/01/25 04:50:17;;;;;;;9.37;8.47;;;;;18.80;102352.00;;;;2087506;28;20703;-70
2023/01/25 04:51:17;;;;;;;8.73;7.77;;;;;18.80;102346.00;;;;2085214;28;20213;-69
2023/01/25 04:52:17;;;;;;;8.97;8.20;;;;;18.80;102352.00;;;;2084968;28;20205;-69
2023/01/25 04:53:17;;;;;;;9.27;8.47;;;;;18.90;102347.00;;;;2084426;28;20760;-69
2023/01/25 04:54:18;;;;;;;9.53;8.73;;;;;18.90;102345.00;;;;2083821;28;20680;-69
2023/01/25 04:55:18;;;;;;;8.50;7.70;;;;;18.80;102344.00;;;;2084331;28;20283;-70
2023/01/25 04:56:19;;;;;;;8.50;7.70;;;;;18.80;102338.00;;;;2084134;28;20201;-70
2023/01/25 04:57:19;;;;;;;8.83;8.07;;;;;18.90;102347.00;;;;2084542;28;20217;-70
2023/01/25 04:58:19;;;;;;;9.33;8.43;;;;;18.90;102336.00;;;;2084713;28;20210;-69
2023/01/25 04:59:20;;;;;;;8.70;7.90;;;;;18.90;102342.00;;;;2078482;28;20228;-69
2023/01/25 05:00:20;;;;;;;9.60;8.77;;;;;18.80;102331.00;;;;2085132;28;20217;-69
2023/01/25 05:01:20;;;;;;;8.93;8.20;;;;;18.80;102334.00;;;;2084896;28;20553;-69
2023/01/25 05:02:21;;;;;;;9.63;8.83;;;;;18.80;102335.00;;;;2084084;28;20216;-70
2023/01/25 05:03:21;;;;;;;8.90;8.10;;;;;18.80;102340.00;;;;2084178;28;20220;-70
2023/01/25 05:04:22;;;;;;;10.30;9.30;;;;;18.80;102338.00;;;;2084108;28;20789;-69